createdAt,value
2019-04-10T00:07:49.941Z,63.17
2019-04-10T00:17:55.739Z,58.43
2019-04-10T00:28:01.316Z,56.90
2019-04-10T00:38:07.182Z,54.97
2019-04-10T00:48:12.915Z,57.40
2019-04-10T00:58:18.373Z,58.23
2019-04-10T01:08:25.120Z,58.50
2019-04-10T01:18:31.051Z,51.67
2019-04-10T01:28:36.793Z,54.83
2019-04-10T01:38:42.407Z,53.27
2019-04-10T01:48:47.915Z,53.13
2019-04-10T01:58:53.750Z,57.97
2019-04-10T02:09:00.375Z,55.13
2019-04-10T02:19:08.161Z,55.17
2019-04-10T02:29:13.893Z,58.83
2019-04-10T02:39:27.839Z,54.57
2019-04-10T02:49:27.864Z,57.07
2019-04-10T02:59:35.047Z,51.10
2019-04-10T03:09:52.871Z,49.93
2019-04-10T03:20:07.939Z,50.70
2019-04-10T03:30:15.245Z,51.17
2019-04-10T03:40:21.658Z,49.07
2019-04-10T03:50:27.811Z,50.00
2019-04-10T04:00:34.248Z,51.77
2019-04-10T04:10:40.460Z,50.67
2019-04-10T04:20:47.563Z,49.70
2019-04-10T04:30:53.804Z,49.97
2019-04-10T04:41:00.384Z,61.43
2019-04-10T04:51:06.719Z,61.77
2019-04-10T05:01:12.708Z,56.80
2019-04-10T05:11:18.378Z,69.00
2019-04-10T05:21:23.974Z,61.10
2019-04-10T05:31:32.217Z,58.13
2019-04-10T05:41:37.854Z,60.20
2019-04-10T05:51:53.506Z,59.33
2019-04-10T06:01:59.176Z,44.17
2019-04-10T06:12:05.776Z,46.30
2019-04-10T06:22:12.771Z,42.53
2019-04-10T06:32:19.164Z,36.17
2019-04-10T06:42:24.751Z,46.17
2019-04-10T06:52:30.444Z,43.17
2019-04-10T07:02:37.095Z,34.37
2019-04-10T07:12:43.877Z,39.33
2019-04-10T07:22:49.827Z,33.43
2019-04-10T07:32:55.461Z,45.60
2019-04-10T07:43:04.576Z,40.10
2019-04-10T07:53:10.935Z,33.67
2019-04-10T08:03:43.754Z,39.63
2019-04-10T08:13:51.184Z,34.73
2019-04-10T08:24:07.995Z,39.60
2019-04-10T08:34:13.602Z,51.57
2019-04-10T08:44:20.062Z,32.20
2019-04-10T08:54:26.601Z,38.70
2019-04-10T09:04:33.634Z,39.17
2019-04-10T09:14:41.025Z,35.57
2019-04-10T09:24:48.868Z,31.63
2019-04-10T09:34:56.259Z,45.40
2019-04-10T09:45:10.160Z,48.70
2019-04-10T09:55:20.544Z,34.23
2019-04-10T10:05:29.041Z,40.77
2019-04-10T10:15:35.837Z,35.70
2019-04-10T10:25:49.041Z,42.17
2019-04-10T10:35:57.672Z,58.10
2019-04-10T10:46:04.085Z,46.97
2019-04-10T10:56:10.406Z,38.20
2019-04-10T11:06:17.749Z,37.47
2019-04-10T11:16:24.908Z,50.13
2019-04-10T11:26:32.015Z,35.10
2019-04-10T11:36:40.065Z,31.87
2019-04-10T11:46:46.506Z,35.77
2019-04-10T11:56:55.370Z,33.97
2019-04-10T12:07:02.109Z,35.17
2019-04-10T12:17:09.677Z,35.23
2019-04-10T12:27:17.391Z,36.10
2019-04-10T12:37:25.853Z,37.23
2019-04-10T12:47:34.627Z,43.83
2019-04-10T12:57:41.343Z,48.97
2019-04-10T13:07:48.280Z,53.03
2019-04-10T13:17:54.586Z,50.20
2019-04-10T13:28:01.319Z,37.20
2019-04-10T13:38:08.773Z,37.43
2019-04-10T13:48:16.432Z,36.83
2019-04-10T13:58:29.070Z,40.20
2019-04-10T14:08:57.276Z,49.03
2019-04-10T14:18:43.427Z,47.13
2019-04-10T14:28:51.290Z,51.10
2019-04-10T14:39:08.276Z,50.70
2019-04-10T14:49:07.013Z,77.20
2019-04-10T14:59:13.635Z,44.77
2019-04-10T15:09:25.651Z,36.43
2019-04-10T15:19:30.134Z,77.40
2019-04-10T15:29:37.156Z,46.00
2019-04-10T15:39:44.827Z,55.30
2019-04-10T15:49:51.642Z,44.53
2019-04-10T15:59:58.814Z,67.90
2019-04-10T16:10:25.594Z,32.93
2019-04-10T16:20:36.818Z,44.30
2019-04-10T16:30:44.021Z,61.40
2019-04-10T16:40:50.662Z,50.73
2019-04-10T16:50:59.692Z,51.90
2019-04-10T17:01:08.361Z,108.90
2019-04-10T17:11:15.322Z,86.47
2019-04-10T17:21:22.571Z,55.20
2019-04-10T17:31:30.707Z,73.47
2019-04-10T17:41:37.681Z,85.83
2019-04-10T17:51:45.866Z,79.53
2019-04-10T18:01:53.756Z,70.30
2019-04-10T18:12:01.884Z,62.30
2019-04-10T18:22:10.021Z,60.60
2019-04-10T18:32:17.928Z,65.57
2019-04-10T18:42:28.763Z,60.57
2019-04-10T18:52:37.285Z,94.83
2019-04-10T19:03:03.413Z,107.03
2019-04-10T19:13:12.927Z,58.07
2019-04-10T19:23:21.027Z,89.13
2019-04-10T19:33:29.312Z,78.13
2019-04-10T19:43:37.901Z,75.77
2019-04-10T19:53:45.814Z,62.07
2019-04-10T20:03:54.215Z,87.97
2019-04-10T20:14:04.033Z,74.77
2019-04-10T20:24:10.490Z,74.60
2019-04-10T20:34:16.471Z,85.03
2019-04-10T20:44:22.754Z,83.10
2019-04-10T20:54:29.035Z,79.63
2019-04-10T21:04:34.630Z,50.30
2019-04-10T21:14:40.600Z,51.63
2019-04-10T21:24:46.223Z,45.33
2019-04-10T21:34:51.950Z,43.47
2019-04-10T21:44:57.522Z,44.60
2019-04-10T21:55:04.441Z,41.27
2019-04-10T22:05:12.386Z,44.03
2019-04-10T22:15:33.104Z,43.67
2019-04-10T22:25:39.505Z,44.83
2019-04-10T22:35:46.211Z,40.77
2019-04-10T22:45:52.860Z,45.13
2019-04-10T22:55:58.580Z,38.30
2019-04-10T23:06:04.905Z,44.50
2019-04-10T23:16:14.148Z,42.53
2019-04-10T23:26:18.555Z,43.27
2019-04-10T23:36:24.684Z,41.07
2019-04-10T23:46:30.568Z,36.87
2019-04-10T23:56:36.075Z,38.10
